< < Back
Terminal Aerodrome Forecast


Current Version              Previous Versions:   1  2  3  4  5  6  7  8  9  

Terminal Aerodrome Forecast

854
FTUS44 KOHX 161300 AAA
TAFCSV
TAF AMD
KCSV 161319Z 1613/1712 30004KT P6SM VCSH BKN011 OVC016
     FM161600 32007KT P6SM BKN035
     FM170200 00000KT 6SM BR SCT250
     FM170600 00000KT 3SM BR SCT005
      TEMPO 1708/1712 1/2SM FG VV001=

Latest METAR

355
SAUS70 KWBC 161500
MTRCSV
METAR KCSV 161453Z AUTO 27004KT 7SM OVC008 20/17 A3016 RMK AO2 SLP197
T02000172 55000


USA.gov is the U.S. government's official web portal to all federal, state and local government web resources and services.